sensor_id;sensor_type;location;lat;lon;timestamp;pressure;altitude;pressure_sealevel;temperature;humidity
43125;BME280;49182;50.788;7.318;2022-09-09T00:00:47;100203.09;;;14.96;96.41
43125;BME280;49182;50.788;7.318;2022-09-09T00:03:17;100204.75;;;14.97;96.25
43125;BME280;49182;50.788;7.318;2022-09-09T00:05:50;100169.22;;;14.90;96.36
43125;BME280;49182;50.788;7.318;2022-09-09T00:08:20;100197.44;;;15.00;96.48
43125;BME280;49182;50.788;7.318;2022-09-09T00:10:51;100193.75;;;15.01;96.63
43125;BME280;49182;50.788;7.318;2022-09-09T00:13:25;100185.31;;;14.97;96.48
43125;BME280;49182;50.788;7.318;2022-09-09T00:15:59;100177.53;;;14.87;96.43
43125;BME280;49182;50.788;7.318;2022-09-09T00:18:29;100195.13;;;14.96;96.51
43125;BME280;49182;50.788;7.318;2022-09-09T00:21:02;100199.59;;;14.96;96.48
43125;BME280;49182;50.788;7.318;2022-09-09T00:23:33;100192.81;;;14.93;96.50
43125;BME280;49182;50.788;7.318;2022-09-09T00:26:06;100200.44;;;14.96;96.39
43125;BME280;49182;50.788;7.318;2022-09-09T00:28:39;100204.91;;;14.96;96.20
43125;BME280;49182;50.788;7.318;2022-09-09T00:31:13;100195.63;;;14.92;96.14
43125;BME280;49182;50.788;7.318;2022-09-09T00:33:41;100196.13;;;14.87;96.36
43125;BME280;49182;50.788;7.318;2022-09-09T00:36:12;100184.72;;;14.79;96.05
43125;BME280;49182;50.788;7.318;2022-09-09T00:38:42;100191.34;;;14.83;96.12
43125;BME280;49182;50.788;7.318;2022-09-09T00:41:14;100192.53;;;14.80;95.97
43125;BME280;49182;50.788;7.318;2022-09-09T00:43:55;100185.06;;;14.76;95.93
43125;BME280;49182;50.788;7.318;2022-09-09T00:46:50;100189.41;;;14.69;95.93
43125;BME280;49182;50.788;7.318;2022-09-09T00:49:30;100188.44;;;14.62;95.93
43125;BME280;49182;50.788;7.318;2022-09-09T00:52:12;100188.94;;;14.57;95.62
43125;BME280;49182;50.788;7.318;2022-09-09T00:54:48;100193.94;;;14.52;95.82
43125;BME280;49182;50.788;7.318;2022-09-09T00:57:26;100195.13;;;14.49;95.63
43125;BME280;49182;50.788;7.318;2022-09-09T00:59:58;100193.78;;;14.45;95.84
43125;BME280;49182;50.788;7.318;2022-09-09T01:02:28;100204.75;;;14.42;95.62
43125;BME280;49182;50.788;7.318;2022-09-09T01:05:02;100193.81;;;14.37;95.46
43125;BME280;49182;50.788;7.318;2022-09-09T01:07:31;100200.09;;;14.36;95.79
43125;BME280;49182;50.788;7.318;2022-09-09T01:09:59;100181.66;;;14.27;95.94
43125;BME280;49182;50.788;7.318;2022-09-09T01:12:38;100195.44;;;14.30;96.20
43125;BME280;49182;50.788;7.318;2022-09-09T01:15:11;100205.41;;;14.36;96.12
43125;BME280;49182;50.788;7.318;2022-09-09T01:17:56;100200.59;;;14.40;96.39
43125;BME280;49182;50.788;7.318;2022-09-09T01:20:27;100179.50;;;14.30;96.72
43125;BME280;49182;50.788;7.318;2022-09-09T01:23:21;100202.56;;;14.46;96.79
43125;BME280;49182;50.788;7.318;2022-09-09T01:26:19;100177.88;;;14.37;96.54
43125;BME280;49182;50.788;7.318;2022-09-09T01:28:49;100202.25;;;14.49;96.58
43125;BME280;49182;50.788;7.318;2022-09-09T01:31:19;100196.59;;;14.52;96.33
43125;BME280;49182;50.788;7.318;2022-09-09T01:33:47;100200.44;;;14.49;96.52
43125;BME280;49182;50.788;7.318;2022-09-09T01:36:20;100181.66;;;14.35;96.78
43125;BME280;49182;50.788;7.318;2022-09-09T01:38:51;100194.97;;;14.43;96.98
43125;BME280;49182;50.788;7.318;2022-09-09T01:41:19;100190.13;;;14.46;97.20
43125;BME280;49182;50.788;7.318;2022-09-09T01:43:58;100195.28;;;14.40;97.29
43125;BME280;49182;50.788;7.318;2022-09-09T01:46:26;100198.09;;;14.38;97.81
43125;BME280;49182;50.788;7.318;2022-09-09T01:48:54;100200.75;;;14.46;97.83
43125;BME280;49182;50.788;7.318;2022-09-09T01:51:23;100195.59;;;14.45;98.08
43125;BME280;49182;50.788;7.318;2022-09-09T01:53:50;100201.94;;;14.44;97.95
43125;BME280;49182;50.788;7.318;2022-09-09T01:56:28;100199.75;;;14.47;97.76
43125;BME280;49182;50.788;7.318;2022-09-09T01:59:03;100204.25;;;14.47;97.65
43125;BME280;49182;50.788;7.318;2022-09-09T02:01:46;100191.16;;;14.37;97.89
43125;BME280;49182;50.788;7.318;2022-09-09T02:04:28;100193.13;;;14.43;97.50
43125;BME280;49182;50.788;7.318;2022-09-09T02:07:00;100206.91;;;14.47;97.64
43125;BME280;49182;50.788;7.318;2022-09-09T02:09:30;100197.94;;;14.48;97.88
43125;BME280;49182;50.788;7.318;2022-09-09T02:12:02;100196.94;;;14.49;97.70
43125;BME280;49182;50.788;7.318;2022-09-09T02:14:42;100203.91;;;14.50;98.05
43125;BME280;49182;50.788;7.318;2022-09-09T02:17:16;100202.88;;;14.51;97.77
43125;BME280;49182;50.788;7.318;2022-09-09T02:19:58;100194.75;;;14.52;97.59
43125;BME280;49182;50.788;7.318;2022-09-09T02:22:39;100195.75;;;14.51;97.92
43125;BME280;49182;50.788;7.318;2022-09-09T02:25:10;100200.06;;;14.52;97.38
43125;BME280;49182;50.788;7.318;2022-09-09T02:27:41;100197.78;;;14.49;97.25
43125;BME280;49182;50.788;7.318;2022-09-09T02:30:10;100188.13;;;14.48;96.96
43125;BME280;49182;50.788;7.318;2022-09-09T02:32:45;100201.25;;;14.50;97.00
43125;BME280;49182;50.788;7.318;2022-09-09T02:35:18;100195.13;;;14.41;97.27
43125;BME280;49182;50.788;7.318;2022-09-09T02:37:46;100199.91;;;14.46;97.43
43125;BME280;49182;50.788;7.318;2022-09-09T02:40:14;100207.06;;;14.45;97.65
43125;BME280;49182;50.788;7.318;2022-09-09T02:42:48;100205.75;;;14.49;97.12
43125;BME280;49182;50.788;7.318;2022-09-09T02:45:19;100184.16;;;14.36;97.71
43125;BME280;49182;50.788;7.318;2022-09-09T02:47:52;100191.47;;;14.42;97.27
43125;BME280;49182;50.788;7.318;2022-09-09T02:50:26;100204.09;;;14.48;97.61
43125;BME280;49182;50.788;7.318;2022-09-09T02:53:06;100191.94;;;14.46;97.57
43125;BME280;49182;50.788;7.318;2022-09-09T02:55:39;100196.75;;;14.50;97.42
43125;BME280;49182;50.788;7.318;2022-09-09T02:58:12;100193.63;;;14.47;97.83
43125;BME280;49182;50.788;7.318;2022-09-09T03:00:40;100194.78;;;14.44;98.11
43125;BME280;49182;50.788;7.318;2022-09-09T03:03:08;100187.31;;;14.40;98.86
43125;BME280;49182;50.788;7.318;2022-09-09T03:05:36;100188.81;;;14.42;98.62
43125;BME280;49182;50.788;7.318;2022-09-09T03:08:04;100181.38;;;14.38;98.96
43125;BME280;49182;50.788;7.318;2022-09-09T03:10:31;100170.34;;;14.33;99.04
43125;BME280;49182;50.788;7.318;2022-09-09T03:12:57;100158.13;;;14.24;99.14
43125;BME280;49182;50.788;7.318;2022-09-09T03:15:28;100181.16;;;14.47;98.74
43125;BME280;49182;50.788;7.318;2022-09-09T03:17:55;100163.22;;;14.33;98.71
43125;BME280;49182;50.788;7.318;2022-09-09T03:20:23;100171.03;;;14.35;98.99
43125;BME280;49182;50.788;7.318;2022-09-09T03:22:49;100191.63;;;14.49;98.80
43125;BME280;49182;50.788;7.318;2022-09-09T03:25:16;100181.00;;;14.49;98.97
43125;BME280;49182;50.788;7.318;2022-09-09T03:27:42;100185.31;;;14.50;99.11
43125;BME280;49182;50.788;7.318;2022-09-09T03:30:11;100155.75;;;14.37;98.82
43125;BME280;49182;50.788;7.318;2022-09-09T03:32:39;100187.47;;;14.54;98.79
43125;BME280;49182;50.788;7.318;2022-09-09T03:35:06;100181.16;;;14.55;98.90
43125;BME280;49182;50.788;7.318;2022-09-09T03:37:34;100186.47;;;14.55;98.67
43125;BME280;49182;50.788;7.318;2022-09-09T03:40:00;100176.00;;;14.54;98.72
43125;BME280;49182;50.788;7.318;2022-09-09T03:42:27;100192.94;;;14.61;98.47
43125;BME280;49182;50.788;7.318;2022-09-09T03:44:56;100197.41;;;14.61;98.67
43125;BME280;49182;50.788;7.318;2022-09-09T03:47:24;100193.91;;;14.60;98.95
43125;BME280;49182;50.788;7.318;2022-09-09T03:49:56;100177.34;;;14.50;99.07
43125;BME280;49182;50.788;7.318;2022-09-09T03:52:23;100184.97;;;14.53;99.23
43125;BME280;49182;50.788;7.318;2022-09-09T03:54:51;100187.25;;;14.64;98.99
43125;BME280;49182;50.788;7.318;2022-09-09T03:57:18;100191.72;;;14.64;98.94
43125;BME280;49182;50.788;7.318;2022-09-09T03:59:45;100175.66;;;14.57;99.00
43125;BME280;49182;50.788;7.318;2022-09-09T04:02:11;100192.25;;;14.67;99.07
43125;BME280;49182;50.788;7.318;2022-09-09T04:04:38;100192.56;;;14.72;98.50
43125;BME280;49182;50.788;7.318;2022-09-09T04:07:06;100189.22;;;14.70;98.53
43125;BME280;49182;50.788;7.318;2022-09-09T04:09:33;100188.53;;;14.76;98.17
43125;BME280;49182;50.788;7.318;2022-09-09T04:12:00;100182.91;;;14.79;98.11
43125;BME280;49182;50.788;7.318;2022-09-09T04:14:29;100195.81;;;14.82;97.42
43125;BME280;49182;50.788;7.318;2022-09-09T04:16:56;100197.50;;;14.83;97.27
43125;BME280;49182;50.788;7.318;2022-09-09T04:19:25;100188.53;;;14.84;97.14
43125;BME280;49182;50.788;7.318;2022-09-09T04:21:52;100188.53;;;14.84;97.34
43125;BME280;49182;50.788;7.318;2022-09-09T04:24:22;100189.88;;;14.80;98.10
43125;BME280;49182;50.788;7.318;2022-09-09T04:26:49;100184.06;;;14.77;98.21
43125;BME280;49182;50.788;7.318;2022-09-09T04:29:16;100182.72;;;14.81;98.23
43125;BME280;49182;50.788;7.318;2022-09-09T04:31:42;100192.34;;;14.82;98.09
43125;BME280;49182;50.788;7.318;2022-09-09T04:34:09;100196.66;;;14.83;98.26
43125;BME280;49182;50.788;7.318;2022-09-09T04:36:36;100186.25;;;14.73;98.31
43125;BME280;49182;50.788;7.318;2022-09-09T04:39:04;100197.84;;;14.80;98.35
43125;BME280;49182;50.788;7.318;2022-09-09T04:41:32;100201.28;;;14.89;98.55
43125;BME280;49182;50.788;7.318;2022-09-09T04:43:59;100206.44;;;14.90;98.24
43125;BME280;49182;50.788;7.318;2022-09-09T04:46:26;100199.13;;;14.92;98.16
43125;BME280;49182;50.788;7.318;2022-09-09T04:48:53;100198.13;;;14.93;98.35
43125;BME280;49182;50.788;7.318;2022-09-09T04:51:22;100203.41;;;15.02;98.19
43125;BME280;49182;50.788;7.318;2022-09-09T04:53:50;100202.25;;;14.96;98.65
43125;BME280;49182;50.788;7.318;2022-09-09T04:56:18;100208.72;;;15.02;98.59
43125;BME280;49182;50.788;7.318;2022-09-09T04:58:51;100205.22;;;15.01;98.69
43125;BME280;49182;50.788;7.318;2022-09-09T05:01:21;100198.13;;;14.93;98.82
43125;BME280;49182;50.788;7.318;2022-09-09T05:03:49;100210.22;;;15.04;98.66
43125;BME280;49182;50.788;7.318;2022-09-09T05:06:21;100215.38;;;15.06;98.42
43125;BME280;49182;50.788;7.318;2022-09-09T05:08:52;100216.81;;;15.08;98.57
43125;BME280;49182;50.788;7.318;2022-09-09T05:11:24;100220.16;;;15.10;98.47
43125;BME280;49182;50.788;7.318;2022-09-09T05:13:56;100221.00;;;15.11;98.64
43125;BME280;49182;50.788;7.318;2022-09-09T05:16:22;100224.63;;;15.18;98.12
43125;BME280;49182;50.788;7.318;2022-09-09T05:18:50;100227.44;;;15.16;98.08
43125;BME280;49182;50.788;7.318;2022-09-09T05:21:18;100209.28;;;15.20;98.22
43125;BME280;49182;50.788;7.318;2022-09-09T05:23:46;100211.63;;;15.23;98.35
43125;BME280;49182;50.788;7.318;2022-09-09T05:26:14;100212.25;;;15.25;98.28
43125;BME280;49182;50.788;7.318;2022-09-09T05:28:45;100207.97;;;15.24;98.44
43125;BME280;49182;50.788;7.318;2022-09-09T05:31:15;100210.75;;;15.30;98.34
43125;BME280;49182;50.788;7.318;2022-09-09T05:33:46;100209.72;;;15.31;98.34
43125;BME280;49182;50.788;7.318;2022-09-09T05:36:15;100199.63;;;15.27;98.42
43125;BME280;49182;50.788;7.318;2022-09-09T05:38:43;100212.88;;;15.35;98.50
43125;BME280;49182;50.788;7.318;2022-09-09T05:41:12;100190.97;;;15.25;98.40
43125;BME280;49182;50.788;7.318;2022-09-09T05:43:39;100216.69;;;15.41;98.04
43125;BME280;49182;50.788;7.318;2022-09-09T05:46:08;100199.50;;;15.43;98.24
43125;BME280;49182;50.788;7.318;2022-09-09T05:48:37;100203.66;;;15.46;98.13
43125;BME280;49182;50.788;7.318;2022-09-09T05:51:05;100216.81;;;15.47;98.11
43125;BME280;49182;50.788;7.318;2022-09-09T05:53:34;100170.06;;;15.22;98.15
43125;BME280;49182;50.788;7.318;2022-09-09T05:56:02;100218.94;;;15.52;98.10
43125;BME280;49182;50.788;7.318;2022-09-09T05:58:31;100203.84;;;15.44;98.01
43125;BME280;49182;50.788;7.318;2022-09-09T06:01:04;100212.94;;;15.58;98.07
43125;BME280;49182;50.788;7.318;2022-09-09T06:03:31;100217.91;;;15.61;97.95
43125;BME280;49182;50.788;7.318;2022-09-09T06:06:00;100212.22;;;15.64;97.82
43125;BME280;49182;50.788;7.318;2022-09-09T06:08:27;100211.53;;;15.70;97.62
43125;BME280;49182;50.788;7.318;2022-09-09T06:11:00;100207.50;;;15.74;97.44
43125;BME280;49182;50.788;7.318;2022-09-09T06:13:29;100212.94;;;15.81;97.47
43125;BME280;49182;50.788;7.318;2022-09-09T06:15:56;100206.59;;;15.82;97.59
43125;BME280;49182;50.788;7.318;2022-09-09T06:18:23;100202.59;;;15.86;97.67
43125;BME280;49182;50.788;7.318;2022-09-09T06:20:55;100201.06;;;15.91;97.49
43125;BME280;49182;50.788;7.318;2022-09-09T06:23:23;100199.69;;;15.95;97.06
43125;BME280;49182;50.788;7.318;2022-09-09T06:25:49;100177.50;;;15.80;97.42
43125;BME280;49182;50.788;7.318;2022-09-09T06:28:17;100205.59;;;16.05;97.06
43125;BME280;49182;50.788;7.318;2022-09-09T06:30:44;100184.53;;;15.96;96.97
43125;BME280;49182;50.788;7.318;2022-09-09T06:33:11;100205.81;;;16.18;96.70
43125;BME280;49182;50.788;7.318;2022-09-09T06:35:37;100183.56;;;16.11;95.20
43125;BME280;49182;50.788;7.318;2022-09-09T06:38:04;100201.06;;;16.29;95.11
43125;BME280;49182;50.788;7.318;2022-09-09T06:40:32;100180.53;;;16.14;95.64
43125;BME280;49182;50.788;7.318;2022-09-09T06:42:59;100212.28;;;16.39;95.08
43125;BME280;49182;50.788;7.318;2022-09-09T06:45:40;100211.47;;;16.53;95.50
43125;BME280;49182;50.788;7.318;2022-09-09T06:48:07;100217.22;;;16.65;95.08
43125;BME280;49182;50.788;7.318;2022-09-09T06:50:34;100211.25;;;16.77;94.47
43125;BME280;49182;50.788;7.318;2022-09-09T06:53:01;100208.94;;;16.89;92.00
43125;BME280;49182;50.788;7.318;2022-09-09T06:55:28;100214.81;;;16.99;90.24
43125;BME280;49182;50.788;7.318;2022-09-09T06:57:56;100206.06;;;17.05;88.71
43125;BME280;49182;50.788;7.318;2022-09-09T07:00:23;100207.22;;;17.32;85.38
43125;BME280;49182;50.788;7.318;2022-09-09T07:02:50;100201.69;;;17.33;86.70
43125;BME280;49182;50.788;7.318;2022-09-09T07:05:18;100205.38;;;17.54;84.64
43125;BME280;49182;50.788;7.318;2022-09-09T07:07:46;100206.13;;;17.62;83.11
43125;BME280;49182;50.788;7.318;2022-09-09T07:10:16;100204.56;;;17.68;83.22
43125;BME280;49182;50.788;7.318;2022-09-09T07:12:44;100174.28;;;17.61;83.62
43125;BME280;49182;50.788;7.318;2022-09-09T07:15:13;100203.09;;;17.87;83.64
43125;BME280;49182;50.788;7.318;2022-09-09T07:17:43;100191.22;;;17.89;84.25
43125;BME280;49182;50.788;7.318;2022-09-09T07:20:10;100193.72;;;17.97;83.64
43125;BME280;49182;50.788;7.318;2022-09-09T07:22:36;100188.69;;;18.09;78.55
43125;BME280;49182;50.788;7.318;2022-09-09T07:25:04;100188.13;;;18.13;77.29
43125;BME280;49182;50.788;7.318;2022-09-09T07:27:31;100177.22;;;18.15;78.27
43125;BME280;49182;50.788;7.318;2022-09-09T07:29:58;100203.91;;;18.36;76.48
43125;BME280;49182;50.788;7.318;2022-09-09T07:32:26;100200.69;;;18.47;74.00
43125;BME280;49182;50.788;7.318;2022-09-09T07:34:52;100205.63;;;18.44;73.05
43125;BME280;49182;50.788;7.318;2022-09-09T07:37:20;100214.03;;;18.41;72.01
43125;BME280;49182;50.788;7.318;2022-09-09T07:39:47;100186.69;;;18.39;72.77
43125;BME280;49182;50.788;7.318;2022-09-09T07:42:15;100208.47;;;18.64;72.39
43125;BME280;49182;50.788;7.318;2022-09-09T07:44:43;100210.53;;;18.68;71.47
43125;BME280;49182;50.788;7.318;2022-09-09T07:47:13;100208.09;;;18.73;71.00
43125;BME280;49182;50.788;7.318;2022-09-09T07:49:46;100230.69;;;18.71;66.91
43125;BME280;49182;50.788;7.318;2022-09-09T07:52:16;100223.78;;;18.83;67.05
43125;BME280;49182;50.788;7.318;2022-09-09T07:54:48;100226.91;;;18.86;66.11
43125;BME280;49182;50.788;7.318;2022-09-09T07:57:15;100222.19;;;18.88;65.78
43125;BME280;49182;50.788;7.318;2022-09-09T07:59:42;100228.19;;;18.97;65.93
43125;BME280;49182;50.788;7.318;2022-09-09T08:02:09;100233.91;;;18.87;64.08
43125;BME280;49182;50.788;7.318;2022-09-09T08:04:36;100231.44;;;18.86;63.34
43125;BME280;49182;50.788;7.318;2022-09-09T08:07:04;100202.78;;;18.52;62.22
43125;BME280;49182;50.788;7.318;2022-09-09T08:09:41;100234.69;;;18.81;62.76
43125;BME280;49182;50.788;7.318;2022-09-09T08:12:16;100209.47;;;18.63;61.70
43125;BME280;49182;50.788;7.318;2022-09-09T08:14:43;100246.13;;;18.69;61.06
43125;BME280;49182;50.788;7.318;2022-09-09T08:17:10;100243.69;;;18.74;61.65
43125;BME280;49182;50.788;7.318;2022-09-09T08:19:37;100246.59;;;18.79;61.99
43125;BME280;49182;50.788;7.318;2022-09-09T08:22:10;100202.03;;;18.58;61.27
43125;BME280;49182;50.788;7.318;2022-09-09T08:24:38;100240.31;;;18.93;61.88
43125;BME280;49182;50.788;7.318;2022-09-09T08:27:06;100246.06;;;18.90;61.26
43125;BME280;49182;50.788;7.318;2022-09-09T08:29:33;100227.88;;;18.79;60.06
43125;BME280;49182;50.788;7.318;2022-09-09T08:31:59;100236.19;;;18.90;60.04
43125;BME280;49182;50.788;7.318;2022-09-09T08:34:27;100241.09;;;18.87;60.15
43125;BME280;49182;50.788;7.318;2022-09-09T08:36:56;100250.03;;;19.01;60.15
43125;BME280;49182;50.788;7.318;2022-09-09T08:39:30;100249.25;;;19.07;60.68
43125;BME280;49182;50.788;7.318;2022-09-09T08:42:23;100248.41;;;19.06;59.52
43125;BME280;49182;50.788;7.318;2022-09-09T08:45:25;100244.09;;;19.05;59.89
43125;BME280;49182;50.788;7.318;2022-09-09T08:48:10;100240.47;;;19.26;59.90
43125;BME280;49182;50.788;7.318;2022-09-09T08:50:42;100249.09;;;19.21;59.51
43125;BME280;49182;50.788;7.318;2022-09-09T08:53:19;100225.84;;;19.22;58.67
43125;BME280;49182;50.788;7.318;2022-09-09T08:55:52;100233.88;;;19.22;57.59
43125;BME280;49182;50.788;7.318;2022-09-09T08:58:27;100237.94;;;19.11;57.00
43125;BME280;49182;50.788;7.318;2022-09-09T09:01:22;100253.03;;;19.32;56.23
43125;BME280;49182;50.788;7.318;2022-09-09T09:04:06;100246.28;;;19.36;56.42
43125;BME280;49182;50.788;7.318;2022-09-09T09:06:44;100219.88;;;19.26;55.75
43125;BME280;49182;50.788;7.318;2022-09-09T09:09:18;100248.16;;;19.42;54.95
43125;BME280;49182;50.788;7.318;2022-09-09T09:11:50;100251.47;;;19.44;54.72
43125;BME280;49182;50.788;7.318;2022-09-09T09:14:20;100249.19;;;19.41;54.91
43125;BME280;49182;50.788;7.318;2022-09-09T09:16:51;100249.25;;;19.48;55.32
43125;BME280;49182;50.788;7.318;2022-09-09T09:19:19;100256.38;;;19.40;54.80
43125;BME280;49182;50.788;7.318;2022-09-09T09:21:50;100247.63;;;19.60;54.96
43125;BME280;49182;50.788;7.318;2022-09-09T09:24:20;100226.22;;;19.66;54.91
43125;BME280;49182;50.788;7.318;2022-09-09T09:26:50;100250.38;;;19.79;54.61
43125;BME280;49182;50.788;7.318;2022-09-09T09:29:20;100245.41;;;19.76;53.80
43125;BME280;49182;50.788;7.318;2022-09-09T09:31:52;100249.13;;;19.82;53.89
43125;BME280;49182;50.788;7.318;2022-09-09T09:34:21;100248.72;;;19.85;53.66
43125;BME280;49182;50.788;7.318;2022-09-09T09:36:53;100250.78;;;19.96;53.77
43125;BME280;49182;50.788;7.318;2022-09-09T09:39:25;100253.50;;;20.09;55.07
43125;BME280;49182;50.788;7.318;2022-09-09T09:42:15;100239.88;;;19.98;52.68
43125;BME280;49182;50.788;7.318;2022-09-09T09:44:49;100245.66;;;20.21;52.41
43125;BME280;49182;50.788;7.318;2022-09-09T09:47:20;100253.28;;;20.31;51.58
43125;BME280;49182;50.788;7.318;2022-09-09T09:50:00;100264.44;;;20.28;52.03
43125;BME280;49182;50.788;7.318;2022-09-09T09:52:32;100259.06;;;20.28;52.32
43125;BME280;49182;50.788;7.318;2022-09-09T09:55:03;100255.75;;;20.12;51.21
43125;BME280;49182;50.788;7.318;2022-09-09T09:57:36;100267.53;;;20.05;50.83
43125;BME280;49182;50.788;7.318;2022-09-09T10:00:14;100258.44;;;20.06;50.88
43125;BME280;49182;50.788;7.318;2022-09-09T10:02:44;100268.56;;;20.10;50.35
43125;BME280;49182;50.788;7.318;2022-09-09T10:05:19;100266.50;;;19.99;50.19
43125;BME280;49182;50.788;7.318;2022-09-09T10:08:03;100261.53;;;20.09;50.37
43125;BME280;49182;50.788;7.318;2022-09-09T10:10:40;100276.75;;;19.83;50.33
43125;BME280;49182;50.788;7.318;2022-09-09T10:13:19;100261.50;;;19.90;50.58
43125;BME280;49182;50.788;7.318;2022-09-09T10:15:54;100260.69;;;19.96;50.63
43125;BME280;49182;50.788;7.318;2022-09-09T10:18:45;100267.88;;;19.89;51.49
43125;BME280;49182;50.788;7.318;2022-09-09T10:21:20;100261.13;;;19.99;51.40
43125;BME280;49182;50.788;7.318;2022-09-09T10:24:07;100264.63;;;20.13;51.08
43125;BME280;49182;50.788;7.318;2022-09-09T10:26:43;100261.13;;;20.19;51.19
43125;BME280;49182;50.788;7.318;2022-09-09T10:29:26;100258.69;;;20.44;50.91
43125;BME280;49182;50.788;7.318;2022-09-09T10:32:05;100257.25;;;20.48;50.88
43125;BME280;49182;50.788;7.318;2022-09-09T10:34:52;100254.50;;;20.81;51.52
43125;BME280;49182;50.788;7.318;2022-09-09T10:37:37;100241.06;;;21.00;50.26
43125;BME280;49182;50.788;7.318;2022-09-09T10:40:19;100236.69;;;21.13;49.05
43125;BME280;49182;50.788;7.318;2022-09-09T10:42:48;100244.88;;;21.37;48.56
43125;BME280;49182;50.788;7.318;2022-09-09T10:45:18;100244.66;;;21.39;48.43
43125;BME280;49182;50.788;7.318;2022-09-09T10:48:01;100235.16;;;21.36;49.15
43125;BME280;49182;50.788;7.318;2022-09-09T10:50:44;100235.84;;;21.12;49.00
43125;BME280;49182;50.788;7.318;2022-09-09T10:53:36;100228.03;;;21.11;49.44
43125;BME280;49182;50.788;7.318;2022-09-09T10:56:06;100228.19;;;21.29;48.13
43125;BME280;49182;50.788;7.318;2022-09-09T10:58:39;100224.69;;;21.28;48.41
43125;BME280;49182;50.788;7.318;2022-09-09T11:01:15;100205.59;;;21.43;48.31
43125;BME280;49182;50.788;7.318;2022-09-09T11:03:51;100219.94;;;21.62;47.89
43125;BME280;49182;50.788;7.318;2022-09-09T11:06:21;100214.66;;;21.80;47.27
43125;BME280;49182;50.788;7.318;2022-09-09T11:08:52;100209.19;;;21.93;47.08
43125;BME280;49182;50.788;7.318;2022-09-09T11:11:27;100216.38;;;22.06;45.82
43125;BME280;49182;50.788;7.318;2022-09-09T11:14:01;100214.19;;;21.90;45.75
43125;BME280;49182;50.788;7.318;2022-09-09T11:16:34;100214.91;;;21.78;46.08
43125;BME280;49182;50.788;7.318;2022-09-09T11:19:13;100232.88;;;21.78;46.45
43125;BME280;49182;50.788;7.318;2022-09-09T11:21:44;100210.78;;;21.76;46.07
43125;BME280;49182;50.788;7.318;2022-09-09T11:24:14;100223.81;;;22.04;46.25
43125;BME280;49182;50.788;7.318;2022-09-09T11:26:46;100225.44;;;22.11;46.23
43125;BME280;49182;50.788;7.318;2022-09-09T11:32:24;100229.03;;;22.48;45.33
43125;BME280;49182;50.788;7.318;2022-09-09T11:35:01;100219.41;;;22.59;45.36
43125;BME280;49182;50.788;7.318;2022-09-09T11:37:51;100217.09;;;22.44;45.24
43125;BME280;49182;50.788;7.318;2022-09-09T11:40:23;100204.25;;;22.46;45.37
43125;BME280;49182;50.788;7.318;2022-09-09T11:43:01;100225.13;;;22.69;44.02
43125;BME280;49182;50.788;7.318;2022-09-09T11:45:29;100214.63;;;22.86;44.49
43125;BME280;49182;50.788;7.318;2022-09-09T11:47:58;100211.06;;;22.67;44.93
43125;BME280;49182;50.788;7.318;2022-09-09T11:50:43;100208.16;;;22.69;44.31
43125;BME280;49182;50.788;7.318;2022-09-09T11:53:21;100176.03;;;22.92;44.77
43125;BME280;49182;50.788;7.318;2022-09-09T11:56:00;100213.91;;;23.27;43.67
43125;BME280;49182;50.788;7.318;2022-09-09T11:58:28;100211.22;;;23.45;43.39
43125;BME280;49182;50.788;7.318;2022-09-09T12:00:55;100210.47;;;23.38;42.56
43125;BME280;49182;50.788;7.318;2022-09-09T12:03:42;100174.09;;;23.47;42.84
43125;BME280;49182;50.788;7.318;2022-09-09T12:06:15;100197.38;;;23.71;42.16
43125;BME280;49182;50.788;7.318;2022-09-09T12:08:46;100193.34;;;23.51;40.76
43125;BME280;49182;50.788;7.318;2022-09-09T12:11:24;100199.00;;;23.43;41.49
43125;BME280;49182;50.788;7.318;2022-09-09T12:13:54;100183.72;;;23.07;42.47
43125;BME280;49182;50.788;7.318;2022-09-09T12:16:30;100202.59;;;23.07;42.83
43125;BME280;49182;50.788;7.318;2022-09-09T12:19:06;100198.22;;;22.69;44.20
43125;BME280;49182;50.788;7.318;2022-09-09T12:21:37;100183.44;;;22.53;43.61
43125;BME280;49182;50.788;7.318;2022-09-09T12:24:08;100202.06;;;22.55;43.94
43125;BME280;49182;50.788;7.318;2022-09-09T12:26:38;100185.03;;;22.61;43.69
43125;BME280;49182;50.788;7.318;2022-09-09T12:29:16;100188.59;;;22.80;44.09
43125;BME280;49182;50.788;7.318;2022-09-09T12:31:53;100170.59;;;22.55;42.91
43125;BME280;49182;50.788;7.318;2022-09-09T12:34:33;100183.31;;;22.67;44.27
43125;BME280;49182;50.788;7.318;2022-09-09T12:37:05;100191.78;;;22.70;43.34
43125;BME280;49182;50.788;7.318;2022-09-09T12:39:35;100190.13;;;22.69;43.05
43125;BME280;49182;50.788;7.318;2022-09-09T12:42:03;100186.13;;;22.53;44.22
43125;BME280;49182;50.788;7.318;2022-09-09T12:44:30;100170.06;;;22.47;43.29
43125;BME280;49182;50.788;7.318;2022-09-09T12:47:00;100188.06;;;22.71;44.54
43125;BME280;49182;50.788;7.318;2022-09-09T12:49:31;100179.31;;;22.33;44.53
43125;BME280;49182;50.788;7.318;2022-09-09T12:51:58;100191.44;;;22.42;43.98
43125;BME280;49182;50.788;7.318;2022-09-09T12:54:25;100186.78;;;22.06;45.22
43125;BME280;49182;50.788;7.318;2022-09-09T12:56:52;100192.75;;;21.83;45.28
43125;BME280;49182;50.788;7.318;2022-09-09T12:59:22;100184.38;;;21.98;45.94
43125;BME280;49182;50.788;7.318;2022-09-09T13:01:55;100182.97;;;21.95;45.71
43125;BME280;49182;50.788;7.318;2022-09-09T13:04:22;100184.66;;;21.83;45.27
43125;BME280;49182;50.788;7.318;2022-09-09T13:06:50;100161.78;;;21.74;45.10
43125;BME280;49182;50.788;7.318;2022-09-09T13:09:17;100163.38;;;21.82;46.55
43125;BME280;49182;50.788;7.318;2022-09-09T13:11:47;100160.88;;;21.55;45.22
43125;BME280;49182;50.788;7.318;2022-09-09T13:14:18;100170.28;;;21.71;46.09
43125;BME280;49182;50.788;7.318;2022-09-09T13:16:56;100130.00;;;21.39;46.59